Time;durP1;ratioP1;P1;durP2;ratioP2;P2;SDS_P1;SDS_P2;PMS_P1;PMS_P2;Temp;Humidity;BMP_temperature;BMP_pressure;BME280_temperature;BME280_humidity;BME280_pressure;Samples;Min_cycle;Max_cycle;Signal;HPM_P1;HPM_P2
2021/10/14 00:00:57;;;;;;;;;;;11.60;96.20;;;;;;5095403;28;19904;-75
2021/10/14 00:03:22;;;;;;;;;;;11.60;96.20;;;;;;5095852;28;19958;-75
2021/10/14 00:05:48;;;;;;;;;;;11.70;96.20;;;;;;5095543;28;19908;-75
2021/10/14 00:08:14;;;;;;;;;;;11.60;96.10;;;;;;5095821;28;19904;-76
2021/10/14 00:10:39;;;;;;;;;;;11.70;96.20;;;;;;5094864;28;19908;-75
2021/10/14 00:13:05;;;;;;;;;;;11.70;96.10;;;;;;5094413;28;20257;-76
2021/10/14 00:15:30;;;;;;;;;;;11.80;96.10;;;;;;5095024;28;19954;-76
2021/10/14 00:17:57;;;;;;;;;;;11.80;96.00;;;;;;5095491;28;19947;-75
2021/10/14 00:20:22;;;;;;;;;;;11.80;96.00;;;;;;5095616;28;19904;-76
2021/10/14 00:22:48;;;;;;;;;;;11.90;96.00;;;;;;5094893;28;19962;-76
2021/10/14 00:25:13;;;;;;;;;;;11.90;96.00;;;;;;5077263;28;19907;-76
2021/10/14 00:27:39;;;;;;;;;;;11.90;96.00;;;;;;5095004;28;19966;-75
2021/10/14 00:30:04;;;;;;;;;;;11.90;96.00;;;;;;5094243;28;19980;-75
2021/10/14 00:32:30;;;;;;;;;;;11.90;95.90;;;;;;5077120;28;19915;-76
2021/10/14 00:34:55;;;;;;;;;;;12.00;96.00;;;;;;5095182;28;19912;-76
2021/10/14 00:37:20;;;;;;;;;;;12.00;96.00;;;;;;5094876;28;19957;-76
2021/10/14 00:39:46;;;;;;;;;;;11.90;95.90;;;;;;5094999;28;20383;-77
2021/10/14 00:42:12;;;;;;;;;;;12.00;96.00;;;;;;5095178;28;20411;-75
2021/10/14 00:44:56;;;;;;;;;;;12.00;95.90;;;;;;5094800;28;20395;-76
2021/10/14 00:47:22;;;;;;;;;;;12.00;95.90;;;;;;5094838;28;19910;-76
2021/10/14 00:49:48;;;;;;;;;;;12.00;96.20;;;;;;5094885;28;19904;-76
2021/10/14 00:52:14;;;;;;;;;;;12.00;95.90;;;;;;5094656;28;19908;-75
2021/10/14 00:54:40;;;;;;;;;;;12.00;96.00;;;;;;5094895;28;19911;-76
2021/10/14 00:57:05;;;;;;;;;;;12.00;95.90;;;;;;5074749;28;19927;-76
2021/10/14 00:59:31;;;;;;;;;;;12.00;95.90;;;;;;5093465;28;19907;-76
2021/10/14 01:01:57;;;;;;;;;;;12.00;96.00;;;;;;5094688;28;20421;-74
2021/10/14 01:04:22;;;;;;;;;;;12.00;95.90;;;;;;5093644;28;19908;-75
2021/10/14 01:06:48;;;;;;;;;;;12.00;96.00;;;;;;5094680;28;19911;-76
2021/10/14 01:09:13;;;;;;;;;;;12.00;96.00;;;;;;5094480;28;19904;-75
2021/10/14 01:11:39;;;;;;;;;;;12.00;96.00;;;;;;5094340;28;20239;-74
2021/10/14 01:14:05;;;;;;;;;;;12.00;96.00;;;;;;5094084;28;19941;-75
2021/10/14 01:16:30;;;;;;;;;;;12.00;96.10;;;;;;5093946;28;20360;-76
2021/10/14 01:18:56;;;;;;;;;;;12.00;96.00;;;;;;5093939;28;20355;-75
2021/10/14 01:21:21;;;;;;;;;;;11.90;96.00;;;;;;5094303;28;20007;-74
2021/10/14 01:23:46;;;;;;;;;;;11.90;96.10;;;;;;5093289;28;19999;-75
2021/10/14 01:26:12;;;;;;;;;;;11.90;96.10;;;;;;5094408;28;19988;-75
2021/10/14 01:28:38;;;;;;;;;;;11.90;96.10;;;;;;5093009;28;19908;-74
2021/10/14 01:31:04;;;;;;;;;;;11.90;96.10;;;;;;5076108;28;19904;-76
2021/10/14 01:33:30;;;;;;;;;;;11.90;96.20;;;;;;5094286;28;20288;-75
2021/10/14 01:35:56;;;;;;;;;;;11.90;96.20;;;;;;5094227;28;19912;-76
2021/10/14 01:38:21;;;;;;;;;;;12.00;96.20;;;;;;5093939;28;20465;-76
2021/10/14 01:40:46;;;;;;;;;;;12.00;96.00;;;;;;5093531;28;20309;-74
2021/10/14 01:43:13;;;;;;;;;;;12.00;96.00;;;;;;5093622;28;19915;-76
2021/10/14 01:45:38;;;;;;;;;;;12.00;96.10;;;;;;5093970;28;20417;-76
2021/10/14 01:48:03;;;;;;;;;;;12.00;96.40;;;;;;5093746;28;19912;-76
2021/10/14 01:50:29;;;;;;;;;;;12.00;96.10;;;;;;5093867;28;19904;-75
2021/10/14 01:52:54;;;;;;;;;;;12.00;96.10;;;;;;5093825;28;19965;-75
2021/10/14 01:55:20;;;;;;;;;;;12.00;96.10;;;;;;5093794;28;19904;-75
2021/10/14 01:57:45;;;;;;;;;;;12.00;96.10;;;;;;5092834;28;20032;-75
2021/10/14 02:00:11;;;;;;;;;;;11.90;96.10;;;;;;5093992;28;19904;-76
2021/10/14 02:02:36;;;;;;;;;;;12.00;96.20;;;;;;5093859;28;19904;-75
2021/10/14 02:05:02;;;;;;;;;;;12.00;96.10;;;;;;5093689;28;19915;-75
2021/10/14 02:07:28;;;;;;;;;;;12.00;96.10;;;;;;5093383;28;19961;-75
2021/10/14 02:09:53;;;;;;;;;;;12.00;96.10;;;;;;5094258;28;20373;-75
2021/10/14 02:12:18;;;;;;;;;;;12.00;96.10;;;;;;5097610;28;19991;-74
2021/10/14 02:14:44;;;;;;;;;;;12.00;96.10;;;;;;5097674;28;19986;-75
2021/10/14 02:17:09;;;;;;;;;;;12.00;96.10;;;;;;5097840;28;19963;-75
2021/10/14 02:19:35;;;;;;;;;;;12.00;96.10;;;;;;5097712;28;19959;-75
2021/10/14 02:22:00;;;;;;;;;;;12.10;96.10;;;;;;5097727;28;19904;-75
2021/10/14 02:24:25;;;;;;;;;;;12.00;96.10;;;;;;5079439;28;20444;-75
2021/10/14 02:26:51;;;;;;;;;;;12.00;96.10;;;;;;5096807;28;20395;-76
2021/10/14 02:29:16;;;;;;;;;;;12.00;96.40;;;;;;5097677;28;19904;-75
2021/10/14 02:31:42;;;;;;;;;;;12.00;96.20;;;;;;5097711;28;19957;-75
2021/10/14 02:34:08;;;;;;;;;;;12.10;96.20;;;;;;5097382;28;19930;-75
2021/10/14 02:36:34;;;;;;;;;;;12.10;96.20;;;;;;5097389;28;19911;-74
2021/10/14 02:38:59;;;;;;;;;;;12.10;96.20;;;;;;5097411;28;19904;-75
2021/10/14 02:41:25;;;;;;;;;;;12.10;96.10;;;;;;5097060;28;19927;-76
2021/10/14 02:43:50;;;;;;;;;;;12.10;96.10;;;;;;5097417;28;19910;-76
2021/10/14 02:46:16;;;;;;;;;;;12.10;96.20;;;;;;5097378;28;20352;-76
2021/10/14 02:48:41;;;;;;;;;;;12.20;96.10;;;;;;5097377;28;19915;-74
2021/10/14 02:51:07;;;;;;;;;;;12.30;96.10;;;;;;5096976;28;19915;-75
2021/10/14 02:53:32;;;;;;;;;;;12.30;96.00;;;;;;5079080;28;19908;-75
2021/10/14 02:55:58;;;;;;;;;;;12.30;96.00;;;;;;5096657;28;19959;-75
2021/10/14 02:58:23;;;;;;;;;;;12.30;96.00;;;;;;5078775;28;19991;-76
2021/10/14 03:00:48;;;;;;;;;;;12.30;96.00;;;;;;5097132;28;19998;-75
2021/10/14 03:03:14;;;;;;;;;;;12.30;96.00;;;;;;5078804;28;19947;-75
2021/10/14 03:05:39;;;;;;;;;;;12.40;96.00;;;;;;5097118;28;19904;-75
2021/10/14 03:08:05;;;;;;;;;;;12.40;96.00;;;;;;5096926;28;19915;-75
2021/10/14 03:10:30;;;;;;;;;;;12.30;95.90;;;;;;5076822;28;19908;-74
2021/10/14 03:12:56;;;;;;;;;;;12.30;96.00;;;;;;5096838;28;19904;-75
2021/10/14 03:15:21;;;;;;;;;;;12.30;96.10;;;;;;5096806;28;20394;-76
2021/10/14 03:17:47;;;;;;;;;;;12.30;96.10;;;;;;5096798;28;19934;-75
2021/10/14 03:20:12;;;;;;;;;;;12.30;96.10;;;;;;5096726;28;19904;-76
2021/10/14 03:22:38;;;;;;;;;;;12.40;96.10;;;;;;5095496;28;19903;-75
2021/10/14 03:25:03;;;;;;;;;;;12.40;96.10;;;;;;5096425;28;19986;-74
2021/10/14 03:27:29;;;;;;;;;;;12.40;96.00;;;;;;5095815;28;20408;-76
2021/10/14 03:29:54;;;;;;;;;;;12.40;96.00;;;;;;5096485;28;20371;-75
2021/10/14 03:32:20;;;;;;;;;;;12.40;96.00;;;;;;5096428;28;19904;-76
2021/10/14 03:34:45;;;;;;;;;;;12.40;95.90;;;;;;5096511;28;19986;-76
2021/10/14 03:37:10;;;;;;;;;;;12.50;96.00;;;;;;5095848;28;19922;-76
2021/10/14 03:39:36;;;;;;;;;;;12.40;95.90;;;;;;5095987;28;19911;-76
2021/10/14 03:42:01;;;;;;;;;;;12.40;96.00;;;;;;5078166;28;19914;-75
2021/10/14 03:44:27;;;;;;;;;;;12.40;96.00;;;;;;5096109;28;19911;-75
2021/10/14 03:46:52;;;;;;;;;;;12.40;96.10;;;;;;5095691;28;20280;-76
2021/10/14 03:49:18;;;;;;;;;;;12.40;96.00;;;;;;5096206;28;19904;-73
2021/10/14 03:51:43;;;;;;;;;;;12.40;96.00;;;;;;5096154;28;20288;-75
2021/10/14 03:54:09;;;;;;;;;;;12.40;96.10;;;;;;5095652;28;19995;-76
2021/10/14 03:56:35;;;;;;;;;;;12.40;96.00;;;;;;5095623;28;19915;-76
2021/10/14 03:59:00;;;;;;;;;;;12.40;96.00;;;;;;5095904;28;19965;-75
2021/10/14 04:01:26;;;;;;;;;;;12.40;96.00;;;;;;5095966;28;20384;-75
2021/10/14 04:03:51;;;;;;;;;;;12.40;96.00;;;;;;5095479;28;19908;-75
2021/10/14 04:06:16;;;;;;;;;;;12.50;95.90;;;;;;5094839;28;20326;-76
2021/10/14 04:08:42;;;;;;;;;;;12.50;95.90;;;;;;5093995;28;20430;-75
2021/10/14 04:11:07;;;;;;;;;;;12.50;95.90;;;;;;5095519;28;19908;-75
2021/10/14 04:13:33;;;;;;;;;;;12.50;95.90;;;;;;5095592;28;19904;-75
2021/10/14 04:15:58;;;;;;;;;;;12.50;95.90;;;;;;5095513;28;19912;-76
2021/10/14 04:18:24;;;;;;;;;;;12.50;95.90;;;;;;5095877;28;20374;-75
2021/10/14 04:20:49;;;;;;;;;;;12.40;95.90;;;;;;5094756;28;20265;-76
2021/10/14 04:23:17;;;;;;;;;;;12.50;95.90;;;;;;5094931;28;20400;-76
2021/10/14 04:25:42;;;;;;;;;;;12.50;95.90;;;;;;5095242;28;19915;-75
2021/10/14 04:28:08;;;;;;;;;;;12.40;95.90;;;;;;5077019;28;19908;-74
2021/10/14 04:30:33;;;;;;;;;;;12.50;95.90;;;;;;5095397;28;19904;-74
2021/10/14 04:32:59;;;;;;;;;;;12.50;95.90;;;;;;5095351;28;19957;-75
2021/10/14 04:35:25;;;;;;;;;;;12.50;95.90;;;;;;5095122;28;19904;-75
2021/10/14 04:37:50;;;;;;;;;;;12.50;95.80;;;;;;5076259;28;19915;-75
2021/10/14 04:40:15;;;;;;;;;;;12.50;95.80;;;;;;5092791;28;19908;-74
2021/10/14 04:42:41;;;;;;;;;;;12.50;95.80;;;;;;5093330;28;19915;-75
2021/10/14 04:45:07;;;;;;;;;;;12.50;95.80;;;;;;5095116;28;19904;-74
2021/10/14 04:47:33;;;;;;;;;;;12.50;95.80;;;;;;5094937;28;19908;-75
2021/10/14 04:49:59;;;;;;;;;;;12.50;95.80;;;;;;5084037;28;19915;-75
2021/10/14 04:52:24;;;;;;;;;;;12.60;95.80;;;;;;5073110;28;19905;-74
2021/10/14 04:54:50;;;;;;;;;;;12.50;95.80;;;;;;5074774;28;19904;-74
2021/10/14 04:57:15;;;;;;;;;;;12.50;95.80;;;;;;5074359;28;19999;-76
2021/10/14 04:59:41;;;;;;;;;;;12.50;95.80;;;;;;5074444;28;19904;-75
2021/10/14 05:02:06;;;;;;;;;;;12.50;95.90;;;;;;5058140;28;19915;-76
2021/10/14 05:04:31;;;;;;;;;;;12.50;95.80;;;;;;5074342;28;20361;-76
2021/10/14 05:06:57;;;;;;;;;;;12.50;95.80;;;;;;5074022;28;19909;-75
2021/10/14 05:09:22;;;;;;;;;;;12.50;95.80;;;;;;5074349;28;19908;-75
2021/10/14 05:11:48;;;;;;;;;;;12.50;95.90;;;;;;5075517;28;19999;-75
2021/10/14 05:14:13;;;;;;;;;;;12.40;95.80;;;;;;5091869;28;19907;-76
2021/10/14 05:16:39;;;;;;;;;;;12.40;95.90;;;;;;5094140;28;19916;-73
2021/10/14 05:19:04;;;;;;;;;;;12.40;95.90;;;;;;5094437;28;19994;-75
2021/10/14 05:21:31;;;;;;;;;;;12.40;96.00;;;;;;5093927;28;19904;-73
2021/10/14 05:23:59;;;;;;;;;;;12.40;95.90;;;;;;5093929;28;19939;-74
2021/10/14 05:26:28;;;;;;;;;;;12.40;96.00;;;;;;5091793;28;20352;-75
2021/10/14 05:28:55;;;;;;;;;;;12.40;96.00;;;;;;5094191;28;19904;-74
2021/10/14 05:31:20;;;;;;;;;;;12.30;96.00;;;;;;5075804;28;19927;-74
2021/10/14 05:33:48;;;;;;;;;;;12.30;96.10;;;;;;5093339;28;20356;-74
2021/10/14 05:36:14;;;;;;;;;;;12.30;96.10;;;;;;5094508;28;19920;-74
2021/10/14 05:38:40;;;;;;;;;;;12.30;96.10;;;;;;5094031;28;20357;-74
2021/10/14 05:41:05;;;;;;;;;;;12.30;96.10;;;;;;5093713;28;20341;-74
2021/10/14 05:43:31;;;;;;;;;;;12.30;96.10;;;;;;5093899;28;19912;-74
2021/10/14 05:45:56;;;;;;;;;;;12.30;96.20;;;;;;5093560;28;19904;-73
2021/10/14 05:48:21;;;;;;;;;;;12.30;96.20;;;;;;5093565;28;20324;-75
2021/10/14 05:50:47;;;;;;;;;;;12.30;96.20;;;;;;5093534;28;20357;-75
2021/10/14 05:53:12;;;;;;;;;;;12.30;96.20;;;;;;5093973;28;20303;-74
2021/10/14 05:55:38;;;;;;;;;;;12.30;96.10;;;;;;5093774;28;19908;-74
2021/10/14 05:58:03;;;;;;;;;;;12.30;96.20;;;;;;5093833;28;20299;-74
2021/10/14 06:00:29;;;;;;;;;;;12.40;96.20;;;;;;5093567;28;19904;-75
2021/10/14 06:02:54;;;;;;;;;;;12.40;96.10;;;;;;5092960;28;19911;-75
2021/10/14 06:05:19;;;;;;;;;;;12.40;96.10;;;;;;5093641;28;19956;-74
2021/10/14 06:07:47;;;;;;;;;;;12.40;96.10;;;;;;5093547;28;19994;-74
2021/10/14 06:10:13;;;;;;;;;;;12.40;96.10;;;;;;5093840;28;20280;-72
2021/10/14 06:12:38;;;;;;;;;;;12.50;96.10;;;;;;5093082;28;19965;-74
2021/10/14 06:15:04;;;;;;;;;;;12.40;96.10;;;;;;5093706;28;19908;-75
2021/10/14 06:17:30;;;;;;;;;;;12.50;96.10;;;;;;5092980;28;19912;-74
2021/10/14 06:19:55;;;;;;;;;;;12.50;96.10;;;;;;5093565;28;19917;-74
2021/10/14 06:22:20;;;;;;;;;;;12.50;96.10;;;;;;5093332;28;20367;-75
2021/10/14 06:24:46;;;;;;;;;;;12.50;96.10;;;;;;5093307;28;20387;-74
2021/10/14 06:27:11;;;;;;;;;;;12.50;96.10;;;;;;5093615;28;19995;-76
2021/10/14 06:29:37;;;;;;;;;;;12.60;96.10;;;;;;5093546;28;20003;-73
2021/10/14 06:32:02;;;;;;;;;;;12.60;96.00;;;;;;5092961;28;19995;-74
2021/10/14 06:34:28;;;;;;;;;;;12.60;96.00;;;;;;5093268;28;20003;-73
2021/10/14 06:36:53;;;;;;;;;;;12.60;96.00;;;;;;5093319;28;19919;-74
2021/10/14 06:39:19;;;;;;;;;;;12.60;96.00;;;;;;5093488;28;19951;-74
2021/10/14 06:41:44;;;;;;;;;;;12.70;96.00;;;;;;5092789;28;19908;-74
2021/10/14 06:44:10;;;;;;;;;;;12.70;96.00;;;;;;5093307;28;19911;-74
2021/10/14 06:46:36;;;;;;;;;;;12.70;96.00;;;;;;5092893;28;19961;-73
2021/10/14 06:49:01;;;;;;;;;;;12.70;96.00;;;;;;5092808;28;19940;-74
2021/10/14 06:51:27;;;;;;;;;;;12.70;96.00;;;;;;5093317;28;20363;-74
2021/10/14 06:53:52;;;;;;;;;;;12.70;95.90;;;;;;5091711;28;19908;-73
2021/10/14 06:56:18;;;;;;;;;;;12.70;95.90;;;;;;5093200;28;19912;-73
2021/10/14 06:58:43;;;;;;;;;;;12.70;95.90;;;;;;5096423;28;20004;-74
2021/10/14 07:01:08;;;;;;;;;;;12.70;96.00;;;;;;5096450;28;19904;-73
2021/10/14 07:03:34;;;;;;;;;;;12.70;96.00;;;;;;5075617;28;19911;-73
2021/10/14 07:05:59;;;;;;;;;;;12.70;95.90;;;;;;5076632;28;19958;-74
2021/10/14 07:08:25;;;;;;;;;;;12.70;96.00;;;;;;5076616;28;19912;-73
2021/10/14 07:10:50;;;;;;;;;;;12.70;96.00;;;;;;5080753;28;20360;-73
2021/10/14 07:13:16;;;;;;;;;;;12.80;96.00;;;;;;5096869;28;19904;-76
2021/10/14 07:15:41;;;;;;;;;;;12.80;96.10;;;;;;5096316;28;20288;-75
2021/10/14 07:18:08;;;;;;;;;;;12.80;96.00;;;;;;5096408;28;19928;-76
2021/10/14 07:20:34;;;;;;;;;;;12.80;95.90;;;;;;5096540;28;19908;-76
2021/10/14 07:23:05;;;;;;;;;;;12.90;96.00;;;;;;5096433;28;19962;-76
2021/10/14 07:25:30;;;;;;;;;;;12.90;96.00;;;;;;5096648;28;20432;-76
2021/10/14 07:27:55;;;;;;;;;;;12.90;96.00;;;;;;5096866;28;19990;-77
2021/10/14 07:30:21;;;;;;;;;;;12.90;96.00;;;;;;5096001;28;19954;-78
2021/10/14 07:32:46;;;;;;;;;;;13.00;96.00;;;;;;5096521;28;19908;-77
2021/10/14 07:35:12;;;;;;;;;;;13.00;95.90;;;;;;5096403;28;19908;-77
2021/10/14 07:37:37;;;;;;;;;;;13.00;96.20;;;;;;5096128;28;19911;-77
2021/10/14 07:40:03;;;;;;;;;;;13.00;95.90;;;;;;5096074;28;20069;-78
2021/10/14 07:42:28;;;;;;;;;;;13.00;96.00;;;;;;5096353;28;19904;-78
2021/10/14 07:44:53;;;;;;;;;;;13.00;96.00;;;;;;5095823;28;19992;-77
2021/10/14 07:47:19;;;;;;;;;;;13.00;96.00;;;;;;5077971;28;19951;-77
2021/10/14 07:49:44;;;;;;;;;;;13.00;96.00;;;;;;5096031;28;19911;-77
2021/10/14 07:52:10;;;;;;;;;;;13.00;95.90;;;;;;5096020;28;19904;-76
2021/10/14 07:54:35;;;;;;;;;;;13.00;96.00;;;;;;5096013;28;19904;-78
2021/10/14 07:57:01;;;;;;;;;;;13.00;96.00;;;;;;5095830;28;20361;-77
2021/10/14 07:59:26;;;;;;;;;;;13.10;96.00;;;;;;5077418;28;19907;-78
2021/10/14 08:01:52;;;;;;;;;;;13.10;96.10;;;;;;5095690;28;19969;-78
2021/10/14 08:04:17;;;;;;;;;;;13.10;96.00;;;;;;5095823;28;20292;-76
2021/10/14 08:06:43;;;;;;;;;;;13.10;96.00;;;;;;5095678;28;20241;-77
2021/10/14 08:09:08;;;;;;;;;;;13.10;96.10;;;;;;5095363;28;20273;-76
2021/10/14 08:11:34;;;;;;;;;;;13.10;96.00;;;;;;5095733;28;19904;-75
2021/10/14 08:13:59;;;;;;;;;;;13.20;96.10;;;;;;5077312;28;19943;-76
2021/10/14 08:16:25;;;;;;;;;;;13.20;96.00;;;;;;5077334;28;19912;-75
2021/10/14 08:18:50;;;;;;;;;;;13.20;96.00;;;;;;5095400;28;19908;-75
2021/10/14 08:21:15;;;;;;;;;;;13.20;96.10;;;;;;5094688;28;19908;-76
2021/10/14 08:23:41;;;;;;;;;;;13.20;96.00;;;;;;5095410;28;20376;-77
2021/10/14 08:26:08;;;;;;;;;;;13.20;96.00;;;;;;5094188;28;19904;-76
2021/10/14 08:28:34;;;;;;;;;;;13.20;96.00;;;;;;5094873;28;19904;-75
2021/10/14 08:31:00;;;;;;;;;;;13.30;96.10;;;;;;5095351;28;19999;-75
2021/10/14 08:33:25;;;;;;;;;;;13.30;96.10;;;;;;5095445;28;19904;-75
2021/10/14 08:35:51;;;;;;;;;;;13.30;96.10;;;;;;5095208;28;19919;-75
2021/10/14 08:38:16;;;;;;;;;;;13.40;96.10;;;;;;5095096;28;19907;-75
2021/10/14 08:40:42;;;;;;;;;;;13.40;96.10;;;;;;5094931;28;20049;-76
2021/10/14 08:43:11;;;;;;;;;;;13.40;96.30;;;;;;5094437;28;19915;-76
2021/10/14 08:45:39;;;;;;;;;;;13.50;96.10;;;;;;5094998;28;20007;-75
2021/10/14 08:48:04;;;;;;;;;;;13.50;96.00;;;;;;5095037;28;19904;-75
2021/10/14 08:50:35;;;;;;;;;;;13.50;96.00;;;;;;5094872;28;19911;-74
2021/10/14 08:53:00;;;;;;;;;;;13.50;96.00;;;;;;5095041;28;20418;-75
2021/10/14 08:55:30;;;;;;;;;;;13.60;96.10;;;;;;5076529;28;19904;-74
2021/10/14 08:57:57;;;;;;;;;;;13.60;96.00;;;;;;5094420;28;19908;-76
2021/10/14 09:00:22;;;;;;;;;;;13.60;96.00;;;;;;5094147;28;19915;-76
2021/10/14 09:02:47;;;;;;;;;;;13.70;96.00;;;;;;5094735;28;19904;-76
2021/10/14 09:05:14;;;;;;;;;;;13.60;95.90;;;;;;5093478;28;19990;-74
2021/10/14 09:07:40;;;;;;;;;;;13.70;96.00;;;;;;5094756;28;20015;-74
2021/10/14 09:10:11;;;;;;;;;;;13.70;96.00;;;;;;5094594;28;19920;-76
2021/10/14 09:12:37;;;;;;;;;;;13.80;96.00;;;;;;5094338;28;19911;-76
2021/10/14 09:15:03;;;;;;;;;;;13.80;95.90;;;;;;5094531;28;19915;-74
2021/10/14 09:17:41;;;;;;;;;;;13.90;96.20;;;;;;5094397;28;19963;-75
2021/10/14 09:20:25;;;;;;;;;;;13.90;95.90;;;;;;5093792;28;19908;-76
2021/10/14 09:22:53;;;;;;;;;;;14.00;95.90;;;;;;5075305;28;20003;-77
2021/10/14 09:25:29;;;;;;;;;;;14.00;95.90;;;;;;5094169;28;19908;-76
2021/10/14 09:28:05;;;;;;;;;;;14.00;95.90;;;;;;5092628;28;19904;-76
2021/10/14 09:30:30;;;;;;;;;;;14.10;95.90;;;;;;5094301;28;19904;-76
2021/10/14 09:32:55;;;;;;;;;;;14.00;95.90;;;;;;5076157;28;19927;-73
2021/10/14 09:35:24;;;;;;;;;;;14.00;95.90;;;;;;5094321;28;19911;-75
2021/10/14 09:37:50;;;;;;;;;;;14.10;95.90;;;;;;5093974;28;19920;-74
2021/10/14 09:40:15;;;;;;;;;;;14.20;95.90;;;;;;5093618;28;19908;-74
2021/10/14 09:42:52;;;;;;;;;;;14.20;95.90;;;;;;5093744;28;19934;-75
2021/10/14 09:45:19;;;;;;;;;;;14.20;95.90;;;;;;5094295;28;19987;-75
2021/10/14 09:48:03;;;;;;;;;;;14.20;95.90;;;;;;5093891;28;20296;-75
2021/10/14 09:50:30;;;;;;;;;;;14.20;95.90;;;;;;5093869;28;20365;-74
2021/10/14 09:52:58;;;;;;;;;;;14.10;95.90;;;;;;5094033;28;19910;-74
2021/10/14 09:55:24;;;;;;;;;;;14.20;96.00;;;;;;5093432;28;19908;-75
2021/10/14 09:57:49;;;;;;;;;;;14.20;96.00;;;;;;5093892;28;20418;-73
2021/10/14 10:00:15;;;;;;;;;;;14.20;96.00;;;;;;5093367;28;19904;-74
2021/10/14 10:02:43;;;;;;;;;;;14.20;96.30;;;;;;5093719;28;20270;-74
2021/10/14 10:05:08;;;;;;;;;;;14.20;96.00;;;;;;5093785;28;19973;-74
2021/10/14 10:07:35;;;;;;;;;;;14.20;96.00;;;;;;5093813;28;20352;-72
2021/10/14 10:10:01;;;;;;;;;;;14.20;96.00;;;;;;5093378;28;19994;-72
2021/10/14 10:12:27;;;;;;;;;;;14.20;96.00;;;;;;5093807;28;19950;-73
2021/10/14 10:14:52;;;;;;;;;;;14.30;96.10;;;;;;5075397;28;19950;-72
2021/10/14 10:17:33;;;;;;;;;;;14.30;96.00;;;;;;5093607;28;20352;-72
2021/10/14 10:19:59;;;;;;;;;;;14.30;96.00;;;;;;5093595;28;19904;-73
2021/10/14 10:22:33;;;;;;;;;;;14.30;96.00;;;;;;5093306;28;20389;-72
2021/10/14 10:25:18;;;;;;;;;;;14.30;95.90;;;;;;5092927;28;19986;-72
2021/10/14 10:27:44;;;;;;;;;;;14.30;96.00;;;;;;5093622;28;19910;-73
2021/10/14 10:30:11;;;;;;;;;;;14.40;96.00;;;;;;5093496;28;19908;-72
2021/10/14 10:32:42;;;;;;;;;;;14.40;96.00;;;;;;5078547;28;19904;-73
2021/10/14 10:35:10;;;;;;;;;;;14.40;96.30;;;;;;5097634;28;20368;-73
2021/10/14 10:37:40;;;;;;;;;;;14.50;96.00;;;;;;5097309;28;19916;-71
2021/10/14 10:40:15;;;;;;;;;;;14.60;96.00;;;;;;5097105;28;19908;-72
2021/10/14 10:42:52;;;;;;;;;;;14.70;96.00;;;;;;5097482;28;19994;-72
2021/10/14 10:45:25;;;;;;;;;;;14.70;96.00;;;;;;5097359;28;19957;-73
2021/10/14 10:47:53;;;;;;;;;;;14.90;96.00;;;;;;5078785;28;19908;-72
2021/10/14 10:50:22;;;;;;;;;;;15.00;95.90;;;;;;5097279;28;19904;-73
2021/10/14 10:52:48;;;;;;;;;;;15.10;95.80;;;;;;5096766;28;19908;-74
2021/10/14 10:55:22;;;;;;;;;;;15.10;95.80;;;;;;5097029;28;19908;-73
2021/10/14 10:57:49;;;;;;;;;;;15.10;95.90;;;;;;5097045;28;19942;-72
2021/10/14 11:00:15;;;;;;;;;;;15.30;96.00;;;;;;5097215;28;19904;-72
2021/10/14 11:02:41;;;;;;;;;;;15.30;95.80;;;;;;5096920;28;19997;-73
2021/10/14 11:05:07;;;;;;;;;;;15.40;95.90;;;;;;5097288;28;20395;-72
2021/10/14 11:07:32;;;;;;;;;;;15.50;95.90;;;;;;5096678;28;19986;-72
2021/10/14 11:09:57;;;;;;;;;;;15.50;95.80;;;;;;5095660;28;19904;-72
2021/10/14 11:12:23;;;;;;;;;;;15.40;95.80;;;;;;5096708;28;19935;-73
2021/10/14 11:14:49;;;;;;;;;;;15.40;95.80;;;;;;5096692;28;20003;-72
2021/10/14 11:17:15;;;;;;;;;;;15.40;95.90;;;;;;5096336;28;20288;-72
2021/10/14 11:19:41;;;;;;;;;;;15.30;95.90;;;;;;5096736;28;19904;-72
2021/10/14 11:22:14;;;;;;;;;;;15.30;96.00;;;;;;5096222;28;19920;-72
2021/10/14 11:24:41;;;;;;;;;;;15.40;96.00;;;;;;5096354;28;19915;-71
2021/10/14 11:27:11;;;;;;;;;;;15.30;96.00;;;;;;5096805;28;19954;-72
2021/10/14 11:29:37;;;;;;;;;;;15.30;96.00;;;;;;5078664;28;19908;-73
2021/10/14 11:32:06;;;;;;;;;;;15.30;96.00;;;;;;5096508;28;20089;-72
2021/10/14 11:34:32;;;;;;;;;;;15.30;96.10;;;;;;5096514;28;19904;-72
2021/10/14 11:36:57;;;;;;;;;;;15.20;96.00;;;;;;5095900;28;20357;-72
2021/10/14 11:39:25;;;;;;;;;;;15.20;96.00;;;;;;5096120;28;19907;-72
2021/10/14 11:42:09;;;;;;;;;;;15.20;96.20;;;;;;5096496;28;19908;-72
2021/10/14 11:44:36;;;;;;;;;;;15.30;96.20;;;;;;5095530;28;19947;-73
2021/10/14 11:47:02;;;;;;;;;;;15.60;96.10;;;;;;5077736;28;20304;-72
2021/10/14 11:49:28;;;;;;;;;;;15.70;96.00;;;;;;5077948;28;19960;-72
2021/10/14 11:51:54;;;;;;;;;;;15.90;95.90;;;;;;5095675;28;19908;-73
2021/10/14 11:54:20;;;;;;;;;;;15.90;95.80;;;;;;5077730;28;19927;-72
2021/10/14 11:56:45;;;;;;;;;;;15.90;95.80;;;;;;5095976;28;20379;-72
2021/10/14 11:59:11;;;;;;;;;;;15.90;95.90;;;;;;5096226;28;20037;-72
2021/10/14 12:01:42;;;;;;;;;;;15.80;95.80;;;;;;5095878;28;19908;-73
2021/10/14 12:04:08;;;;;;;;;;;15.80;95.90;;;;;;5095774;28;19911;-72
2021/10/14 12:06:35;;;;;;;;;;;15.70;95.90;;;;;;5095285;28;19908;-72
2021/10/14 12:09:01;;;;;;;;;;;15.60;95.90;;;;;;5077735;28;19904;-72
2021/10/14 12:11:26;;;;;;;;;;;15.60;95.90;;;;;;5095679;28;19918;-72
2021/10/14 12:14:02;;;;;;;;;;;15.50;95.90;;;;;;5095626;28;20274;-72
2021/10/14 12:16:29;;;;;;;;;;;15.40;96.00;;;;;;5095771;28;20027;-73
2021/10/14 12:18:54;;;;;;;;;;;15.40;96.00;;;;;;5095301;28;20379;-73
2021/10/14 12:21:33;;;;;;;;;;;15.40;96.10;;;;;;5076964;28;19908;-72
2021/10/14 12:24:05;;;;;;;;;;;15.40;96.10;;;;;;5095240;28;19916;-72
2021/10/14 12:26:34;;;;;;;;;;;15.30;96.10;;;;;;5077154;28;19908;-72
2021/10/14 12:29:18;;;;;;;;;;;15.30;96.10;;;;;;5095475;28;19939;-72
2021/10/14 12:31:44;;;;;;;;;;;15.40;96.20;;;;;;5095330;28;20323;-72
2021/10/14 12:34:09;;;;;;;;;;;15.40;96.20;;;;;;5095387;28;19904;-72
2021/10/14 12:36:42;;;;;;;;;;;15.50;96.10;;;;;;5076617;28;20336;-75
2021/10/14 12:39:16;;;;;;;;;;;15.50;96.10;;;;;;5095106;28;19904;-73
2021/10/14 12:41:48;;;;;;;;;;;15.60;96.10;;;;;;5095053;28;19903;-74
2021/10/14 12:44:13;;;;;;;;;;;15.80;96.10;;;;;;5095155;28;19956;-73
2021/10/14 12:51:43;;;;;;;;;;;16.10;95.90;;;;;;5094972;28;20368;-73
2021/10/14 12:54:12;;;;;;;;;;;16.00;95.80;;;;;;5094239;28;19911;-73
2021/10/14 12:56:40;;;;;;;;;;;16.00;95.80;;;;;;5075713;28;19941;-73
2021/10/14 12:59:06;;;;;;;;;;;15.90;95.90;;;;;;5094770;28;19919;-73
2021/10/14 13:01:35;;;;;;;;;;;15.80;95.90;;;;;;5094273;28;19904;-73
2021/10/14 13:04:01;;;;;;;;;;;15.80;96.00;;;;;;5094104;28;20077;-73
2021/10/14 13:06:26;;;;;;;;;;;15.70;96.00;;;;;;5094801;28;20391;-75
2021/10/14 13:09:03;;;;;;;;;;;15.70;96.00;;;;;;5094346;28;19910;-75
2021/10/14 13:12:18;;;;;;;;;;;15.60;95.80;;;;;;5091119;28;19916;-75
2021/10/14 13:14:43;;;;;;;;;;;15.60;96.10;;;;;;5090074;28;20011;-75
2021/10/14 13:17:09;;;;;;;;;;;15.60;96.20;;;;;;5090924;28;20448;-75
2021/10/14 13:19:34;;;;;;;;;;;15.60;96.20;;;;;;5090258;28;20356;-74
2021/10/14 13:21:59;;;;;;;;;;;15.70;96.20;;;;;;5091101;28;19912;-78
2021/10/14 13:24:25;;;;;;;;;;;15.80;96.10;;;;;;5091233;28;19908;-75
2021/10/14 13:26:53;;;;;;;;;;;15.80;96.10;;;;;;5091131;28;20277;-74
2021/10/14 13:29:18;;;;;;;;;;;15.90;96.10;;;;;;5090730;28;20383;-74
2021/10/14 13:31:44;;;;;;;;;;;16.00;96.30;;;;;;5090599;28;19920;-73
2021/10/14 13:34:12;;;;;;;;;;;16.20;96.10;;;;;;5090273;28;19995;-74
2021/10/14 13:36:38;;;;;;;;;;;16.20;96.00;;;;;;5090951;28;19916;-75
2021/10/14 13:39:03;;;;;;;;;;;16.40;96.00;;;;;;5090768;28;19908;-75
2021/10/14 13:41:30;;;;;;;;;;;16.40;95.80;;;;;;5090537;28;19982;-75
2021/10/14 13:46:21;;;;;;;;;;;16.40;95.90;;;;;;5090239;28;19916;-75
2021/10/14 13:48:47;;;;;;;;;;;16.30;95.90;;;;;;5089738;28;20419;-75
2021/10/14 13:51:12;;;;;;;;;;;16.20;95.90;;;;;;5090452;28;19917;-75
2021/10/14 13:53:38;;;;;;;;;;;16.20;95.90;;;;;;5090380;28;20003;-74
2021/10/14 13:56:03;;;;;;;;;;;16.10;95.90;;;;;;5090427;28;19912;-74
2021/10/14 13:58:29;;;;;;;;;;;16.10;95.90;;;;;;5090477;28;19908;-74
2021/10/14 14:00:54;;;;;;;;;;;16.00;95.90;;;;;;5090457;28;19995;-75
2021/10/14 14:03:20;;;;;;;;;;;15.90;96.00;;;;;;5089978;28;19915;-74
2021/10/14 14:05:49;;;;;;;;;;;15.80;96.00;;;;;;5088545;28;19912;-75
2021/10/14 14:08:16;;;;;;;;;;;15.80;96.10;;;;;;5089140;28;19919;-75
2021/10/14 14:10:42;;;;;;;;;;;15.80;96.10;;;;;;5096696;28;19946;-75
2021/10/14 14:13:07;;;;;;;;;;;15.80;96.10;;;;;;5110508;28;19917;-74
2021/10/14 14:15:34;;;;;;;;;;;15.80;96.10;;;;;;5110512;28;20003;-74
2021/10/14 14:18:00;;;;;;;;;;;15.70;96.10;;;;;;5109631;28;19912;-74
2021/10/14 14:20:26;;;;;;;;;;;15.70;96.10;;;;;;5110228;28;19908;-74